Station: Lady Elliot Island  

  Atmospheric Gas Attenuation - ITU Rec 676-11   ----------------- dB/100km -----------------
Date Time Temp RH % AH g/m3 Dew Point Wind Direction Speed kph Gust kph Barometer mB Rainfall Since 9am 24GHz 47GHz 76GHz 122GHz 134GHz 241GHz
01/09 17:00 20.5 72 12.81 15.3 22 28 1024.6 0 28.1 31.2 53.8 141.7 146.2 506.2
01/09 16:50 20.8 73 13.22 15.8 22 30 1024.7 0 29.0 31.8 55.4 145.9 151.3 524.3
01/09 16:40 21.2 72 13.34 16 22 30 1024.6 0 29.2 31.8 55.6 146.5 152.2 527.4
01/09 16:30 21.5 72 13.58 16.2 20 28 1024.6 0 29.7 32.2 56.4 148.7 155.0 537.1
01/09 16:20 21.8 68 13.05 15.6 20 28 1024.5 0 28.6 31.1 53.9 142.1 147.0 509.3
01/09 16:10 21.8 64 12.28 14.7 22 28 1024.4 0 26.9 29.8 50.7 133.5 136.5 472.6
01/09 16:00 22.2 66 12.96 15.5 20 26 1024.4 0 28.3 30.8 53.3 140.3 145.0 502.3
01/09 15:50 22 65 12.61 15.1 20 28 1024.4 0 27.6 30.3 51.9 136.8 140.6 486.9
01/09 15:40 22.3 64 12.64 15.2 20 26 1024.4 0 27.7 30.3 51.9 136.6 140.4 486.5
01/09 15:30 22.5 64 12.78 15.4 20 28 1024.3 0 27.9 30.4 52.3 137.8 142.0 491.8
01/09 15:20 22.5 62 12.38 14.9 22 30 1024.5 0 27.1 29.8 50.7 133.4 136.6 473.1
01/09 15:10 22.6 62 12.45 15 22 28 1024.5 0 27.2 29.8 50.9 134.0 137.4 475.7
01/09 15:00 22.9 63 12.87 15.5 24 32 1024.6 0 28.1 30.4 52.4 138.1 142.5 493.7
01/09 14:50 23.2 61 12.68 15.3 20 28 1024.6 0 27.7 30.0 51.5 135.5 139.4 482.9
01/09 14:40 23.2 60 12.47 15 20 28 1024.6 0 27.2 29.7 50.6 133.2 136.6 473.1
01/09 14:30 22.9 60 12.26 14.7 22 30 1024.7 0 26.8 29.4 49.9 131.5 134.3 465.2
01/09 14:20 22.8 60 12.19 14.6 24 30 1024.7 0 26.7 29.4 49.7 130.9 133.6 462.5
01/09 14:10 23.1 60 12.4 14.9 20 28 1024.8 0 27.1 29.6 50.4 132.7 135.8 470.5
01/09 14:00 23.4 61 12.83 15.5 22 28 1024.8 0 28.0 30.2 51.9 136.8 141.0 488.7
01/09 13:50 23.1 60 12.4 14.9 22 28 1025 0 27.1 29.6 50.4 132.7 135.9 470.6
01/09 13:40 23 59 12.13 14.6 24 32 1025 0 26.5 29.2 49.4 130.0 132.5 458.7
01/09 13:30 23.3 58 12.13 14.6 24 30 1025.1 0 26.5 29.1 49.2 129.5 132.0 457.0
01/09 13:20 23.3 58 12.13 14.6 26 33 1025.2 0 26.5 29.1 49.2 129.5 132.0 457.0
01/09 13:10 23.2 58 12.06 14.5 24 30 1025.3 0 26.4 29.0 49.0 128.9 131.2 454.4
01/09 13:00 23.4 60 12.62 15.2 22 30 1025.5 0 27.5 29.9 51.1 134.6 138.3 479.2
01/09 12:50 23.3 56 11.71 14 24 30 1025.6 0 25.6 28.5 47.5 125.1 126.5 438.0
01/09 12:40 23.1 58 11.99 14.4 24 30 1025.7 0 26.2 29.0 48.8 128.4 130.5 451.9
01/09 12:30 23.1 59 12.2 14.7 24 30 1025.8 0 26.7 29.3 49.6 130.6 133.3 461.6
01/09 12:20 23.2 57 11.85 14.2 24 32 1026 0 25.9 28.7 48.2 126.8 128.6 445.0
01/09 12:10 23.4 59 12.41 14.9 24 32 1026.2 0 27.1 29.6 50.3 132.5 135.6 469.7
01/09 12:00 23.4 61 12.83 15.5 26 33 1026.3 0 28.0 30.3 52.0 137.0 141.2 489.3
01/09 11:50 23.3 59 12.34 14.8 26 32 1026.6 0 27.0 29.5 50.1 131.9 134.9 467.2
01/09 11:40 23.4 59 12.41 14.9 26 33 1026.7 0 27.1 29.6 50.3 132.5 135.6 469.9
01/09 11:30 21.9 60 11.58 13.8 26 32 1026.9 0 25.4 28.8 47.9 126.1 127.2 440.3
01/09 11:20 23.1 59 12.2 14.7 24 32 1027 0 26.7 29.4 49.7 130.8 133.4 462.0
01/09 11:10 23.3 60 12.54 15.1 24 32 1027.1 0 27.4 29.9 50.9 134.1 137.6 476.6
01/09 11:00 22 72 13.97 16.7 20 30 1027.2 0 30.5 32.7 57.8 152.5 159.8 553.8
01/09 10:50 22.5 70 13.98 16.8 19 30 1027.3 0 30.5 32.6 57.5 151.7 158.9 550.8
01/09 10:40 22.6 70 14.06 16.9 22 32 1027.5 0 30.6 32.7 57.8 152.4 159.8 554.1
01/09 10:30 22.2 69 13.55 16.2 20 26 1027.7 0 29.6 32.0 55.9 147.4 153.5 532.0
01/09 10:20 22.1 71 13.86 16.6 24 30 1027.8 0 30.2 32.5 57.3 151.1 158.1 547.9
01/09 10:10 22 71 13.78 16.5 22 32 1027.9 0 30.1 32.4 57.1 150.4 157.2 544.8
01/09 10:00 22.5 71 14.18 17 22 28 1027.8 0 30.9 32.9 58.4 154.0 161.8 560.9
01/09 09:50 22.2 73 14.33 17.1 22 30 1027.9 0 31.2 33.3 59.3 156.4 164.5 570.5
01/09 09:40 21 77 14.1 16.8 24 30 1027.8 0 30.8 33.4 59.2 156.1 163.8 567.8
01/09 09:30 21.7 76 14.5 17.3 24 30 1027.8 0 31.6 33.8 60.4 159.4 168.1 582.7
01/09 09:20 21.2 77 14.27 17 24 32 1027.7 0 31.2 33.6 59.8 157.7 165.8 574.9
01/09 09:10 21.2 76 14.08 16.8 24 32 1027.8 0 30.8 33.3 59.0 155.4 163.1 565.4
01/09 09:00 21.7 76 14.5 17.3 24 33 1027.8 0 31.6 33.8 60.4 159.4 168.1 582.7
01/09 08:50 21.9 62 11.96 14.3 24 32 1027.7 0 26.2 29.4 49.5 130.3 132.4 458.1
01/09 08:40 22 61 11.84 14.1 24 30 1027.8 0 26.0 29.2 49.0 128.8 130.6 452.0
01/09 08:30 22 63 12.23 14.6 26 32 1027.6 0 26.8 29.8 50.5 133.0 135.8 470.2
01/09 08:20 21.6 64 12.14 14.5 24 32 1027.5 0 26.6 29.8 50.4 132.7 135.3 468.3
01/09 08:10 21.9 66 12.73 15.3 24 30 1027.4 0 27.9 30.7 52.7 138.7 142.7 494.4
01/09 08:00 21.7 65 12.4 14.8 24 33 1027.3 0 27.2 30.2 51.4 135.4 138.6 479.9
01/09 07:50 21.7 65 12.4 14.8 26 33 1027.2 0 27.2 30.2 51.4 135.4 138.6 479.8
01/09 07:40 21.4 63 11.81 14.1 24 33 1027.1 0 26.0 29.3 49.2 129.4 131.1 453.8
01/09 07:30 21.4 65 12.19 14.6 24 30 1026.9 0 26.8 29.9 50.7 133.5 136.2 471.6
01/09 07:20 21.1 63 11.61 13.8 26 30 1026.9 0 25.6 29.1 48.5 127.7 128.9 446.1
01/09 07:10 20.8 66 11.95 14.2 24 32 1026.8 0 26.3 29.7 50.1 131.9 134.0 463.8
01/09 07:00 20.6 63 11.27 13.3 26 33 1026.7 0 24.9 28.7 47.5 124.8 125.2 433.1
01/09 06:50 20.3 66 11.61 13.7 24 30 1026.7 0 25.6 29.3 49.0 129.0 130.3 450.7
01/09 06:40 20 69 11.92 14.1 24 32 1026.6 0 26.3 29.9 50.5 132.9 135.0 467.1
01/09 06:30 19.6 77 13 15.5 17 24 1026.6 0 28.6 31.9 55.4 145.8 150.8 522.3
01/09 06:20 18.5 75 11.87 14 17 26 1026.6 0 26.3 30.4 51.3 134.9 136.9 473.7
01/09 06:10 19 74 12.06 14.3 39 46 1026.6 0 26.6 30.5 51.7 136.2 138.7 479.9
01/09 06:00 19.6 67 11.31 13.3 20 28 1026.3 0 25.0 29.0 48.2 126.8 127.3 440.4
01/09 05:50 19.8 67 11.44 13.5 24 30 1026.3 0 25.3 29.2 48.6 127.9 128.8 445.4
01/09 05:40 19.8 70 11.96 14.2 24 32 1026.2 0 26.4 30.1 50.8 133.6 135.8 470.1
01/09 05:30 19.8 69 11.78 14 26 32 1026.2 0 26.0 29.7 50.0 131.6 133.4 461.5
01/09 05:20 19.8 68 11.61 13.7 26 33 1026.1 0 25.6 29.5 49.3 129.7 131.1 453.3
01/09 05:10 19.9 67 11.51 13.6 28 37 1026.1 0 25.4 29.3 48.8 128.5 129.5 448.0
01/09 05:00 20 69 11.92 14.1 28 35 1026 0 26.3 29.9 50.5 132.8 134.9 466.9
01/09 04:50 20.2 69 12.06 14.3 26 33 1026 0 26.6 30.1 50.9 134.0 136.5 472.4
01/09 04:40 20 68 11.75 13.9 26 33 1026 0 25.9 29.6 49.8 130.9 132.6 458.8
01/09 04:30 20.2 71 12.41 14.8 26 33 1025.9 0 27.3 30.7 52.4 137.9 141.3 489.2
01/09 04:20 20.1 69 11.99 14.2 28 37 1025.8 0 26.4 30.0 50.7 133.4 135.7 469.6
01/09 04:10 20.1 68 11.82 14 30 37 1025.8 0 26.1 29.7 50.0 131.5 133.4 461.4
01/09 04:00 20.3 68 11.96 14.2 26 35 1025.7 0 26.3 29.9 50.4 132.7 134.9 466.9
01/09 03:50 20.3 65 11.43 13.5 30 35 1025.6 0 25.2 29.0 48.2 126.9 127.7 441.8
01/09 03:40 20.2 69 12.06 14.3 28 35 1025.6 0 26.6 30.1 50.9 134.0 136.4 472.2
01/09 03:30 20.3 66 11.61 13.7 30 41 1025.7 0 25.6 29.3 49.0 128.8 130.2 450.3
01/09 03:20 20.3 68 11.96 14.2 30 39 1025.7 0 26.3 29.9 50.4 132.7 134.9 466.9
01/09 03:10 20.3 68 11.96 14.2 30 37 1025.8 0 26.3 29.9 50.4 132.7 134.9 466.9
01/09 03:00 20.2 64 11.19 13.2 32 39 1025.8 0 24.7 28.6 47.3 124.4 124.7 431.2
01/09 02:50 20.2 64 11.19 13.2 32 39 1026 0 24.7 28.6 47.3 124.5 124.7 431.3
01/09 02:40 20.2 64 11.19 13.2 32 41 1026 0 24.7 28.6 47.3 124.5 124.7 431.3
01/09 02:30 20.2 67 11.71 13.9 32 39 1026.1 0 25.8 29.5 49.5 130.2 131.7 455.7
01/09 02:20 20.4 70 12.38 14.7 30 35 1026 0 27.2 30.5 52.1 137.2 140.5 486.5
01/09 02:10 20.3 69 12.13 14.4 32 39 1026 0 26.7 30.2 51.1 134.6 137.3 475.1
01/09 02:00 20.4 70 12.38 14.7 32 39 1026.1 0 27.2 30.5 52.1 137.3 140.5 486.5
01/09 01:50 20.3 70 12.31 14.7 30 35 1026.2 0 27.1 30.5 51.9 136.7 139.8 483.8
01/09 01:40 20.4 65 11.5 13.6 30 37 1026.4 0 25.4 29.1 48.5 127.6 128.6 444.8
01/09 01:30 20.4 67 11.85 14.1 30 39 1026.5 0 26.1 29.7 49.9 131.4 133.3 461.3
01/09 01:20 20.4 65 11.5 13.6 32 41 1026.6 0 25.4 29.1 48.5 127.6 128.6 444.9
01/09 01:10 20.4 65 11.5 13.6 32 39 1026.7 0 25.4 29.1 48.5 127.6 128.6 444.9
01/09 01:00 20.4 64 11.32 13.4 32 41 1026.8 0 25.0 28.8 47.8 125.7 126.2 436.5
01/09 00:50 20.4 61 10.79 12.6 30 41 1027 0 23.9 28.0 45.7 120.0 119.2 412.1
01/09 00:40 20.6 63 11.27 13.3 30 37 1027.3 0 24.9 28.7 47.5 124.9 125.3 433.3
01/09 00:30 20.5 61 10.85 12.7 32 43 1027.3 0 24.0 28.0 45.9 120.5 119.9 414.4

Last Refresh: 01-Sep-2026 16:42:33

Bureau of Meteorology